Time;durP1;ratioP1;P1;durP2;ratioP2;P2;SDS_P1;SDS_P2;PMS_P1;PMS_P2;Temp;Humidity;BMP_temperature;BMP_pressure;BME280_temperature;BME280_humidity;BME280_pressure;Samples;Min_cycle;Max_cycle;Signal;HPM_P1;HPM_P2
2021/04/10 00:02:08;;;;;;;5.57;2.08;;;13.80;46.90;;;;;;5094920;28;20127;-76
2021/04/10 00:04:34;;;;;;;4.30;1.58;;;13.70;46.10;;;;;;5078399;28;20048;-76
2021/04/10 00:07:01;;;;;;;4.32;1.50;;;13.60;46.20;;;;;;5057960;28;20502;-77
2021/04/10 00:09:28;;;;;;;5.95;1.90;;;13.50;47.00;;;;;;5071210;28;20041;-78
2021/04/10 00:11:55;;;;;;;4.70;2.10;;;13.50;46.80;;;;;;5066172;28;20137;-78
2021/04/10 00:14:22;;;;;;;5.47;1.90;;;13.40;47.10;;;;;;5068313;28;20469;-76
2021/04/10 00:16:49;;;;;;;5.75;1.90;;;13.30;47.80;;;;;;5064315;28;20454;-76
2021/04/10 00:19:15;;;;;;;4.07;1.55;;;13.20;47.60;;;;;;5060674;28;20088;-77
2021/04/10 00:21:42;;;;;;;6.03;1.70;;;13.10;48.50;;;;;;5070137;28;20526;-78
2021/04/10 00:24:11;;;;;;;5.10;1.77;;;13.10;48.50;;;;;;5065594;28;20140;-78
2021/04/10 00:26:38;;;;;;;4.50;1.88;;;13.10;49.00;;;;;;5059236;28;20139;-76
2021/04/10 00:29:05;;;;;;;4.32;1.50;;;13.00;48.30;;;;;;5053784;28;20251;-77
2021/04/10 00:31:34;;;;;;;4.20;1.92;;;13.10;48.10;;;;;;5063663;28;20128;-76
2021/04/10 00:34:00;;;;;;;5.68;1.75;;;13.00;48.60;;;;;;5062179;28;20132;-75
2021/04/10 00:36:27;;;;;;;4.13;1.70;;;13.20;48.10;;;;;;5056158;28;20132;-74
2021/04/10 00:38:54;;;;;;;3.47;1.58;;;13.10;47.70;;;;;;5067614;28;20132;-75
2021/04/10 00:41:21;;;;;;;5.25;1.67;;;13.10;47.70;;;;;;5057149;28;20076;-75
2021/04/10 00:43:48;;;;;;;5.90;1.77;;;13.20;47.80;;;;;;5061726;28;20081;-75
2021/04/10 00:46:16;;;;;;;5.30;1.90;;;13.20;47.40;;;;;;5064780;28;20084;-75
2021/04/10 00:48:42;;;;;;;4.57;1.60;;;13.20;47.40;;;;;;5053832;28;20076;-76
2021/04/10 00:51:09;;;;;;;4.03;1.55;;;13.30;47.40;;;;;;5062961;28;20528;-76
2021/04/10 00:53:37;;;;;;;5.28;1.80;;;13.30;47.50;;;;;;5068922;28;20059;-77
2021/04/10 00:56:06;;;;;;;5.30;1.90;;;13.30;47.50;;;;;;5067166;28;20120;-76
2021/04/10 00:58:34;;;;;;;6.30;1.85;;;13.30;47.50;;;;;;5058412;28;20536;-77
2021/04/10 01:01:02;;;;;;;3.75;1.65;;;13.20;47.80;;;;;;5065898;28;20099;-76
2021/04/10 01:03:29;;;;;;;4.85;1.60;;;13.30;48.40;;;;;;5069077;28;20088;-77
2021/04/10 01:05:56;;;;;;;5.75;1.70;;;13.30;47.80;;;;;;5065025;28;20147;-77
2021/04/10 01:08:23;;;;;;;5.55;1.60;;;13.30;48.00;;;;;;5084509;28;20080;-77
2021/04/10 01:10:50;;;;;;;3.60;1.63;;;13.30;48.00;;;;;;5079597;28;20894;-76
2021/04/10 01:13:32;;;;;;;5.15;2.10;;;13.30;48.10;;;;;;5077236;28;20084;-77
2021/04/10 01:16:04;;;;;;;5.72;1.83;;;13.30;48.20;;;;;;5087158;28;20119;-77
2021/04/10 01:18:41;;;;;;;4.95;1.60;;;13.30;48.40;;;;;;5077757;28;20044;-76
2021/04/10 01:21:22;;;;;;;5.00;1.60;;;13.30;48.30;;;;;;5078380;28;20048;-75
2021/04/10 01:24:34;;;;;;;4.15;1.40;;;13.10;48.20;;;;;;5087361;28;20075;-76
2021/04/10 01:27:32;;;;;;;4.35;1.40;;;13.30;49.00;;;;;;5015955;28;20079;-77
2021/04/10 01:30:04;;;;;;;5.50;1.70;;;13.40;48.20;;;;;;5079483;28;20478;-76
2021/04/10 01:32:36;;;;;;;5.22;1.42;;;13.40;47.80;;;;;;5085909;28;20567;-77
2021/04/10 01:35:08;;;;;;;4.65;1.27;;;13.40;47.80;;;;;;5073625;28;20071;-78
2021/04/10 01:37:41;;;;;;;5.68;1.60;;;13.40;47.70;;;;;;5082994;28;20135;-76
2021/04/10 01:40:11;;;;;;;3.78;1.40;;;13.40;47.70;;;;;;5082809;28;20528;-77
2021/04/10 01:42:40;;;;;;;3.92;1.40;;;13.40;47.60;;;;;;5074103;28;20088;-77
2021/04/10 01:45:10;;;;;;;4.88;1.50;;;13.40;47.60;;;;;;5070119;28;20053;-75
2021/04/10 01:47:39;;;;;;;5.50;1.55;;;13.40;47.50;;;;;;5076437;28;20332;-76
2021/04/10 01:50:07;;;;;;;4.85;1.27;;;13.50;47.40;;;;;;5089140;28;20060;-76
2021/04/10 01:52:34;;;;;;;4.30;1.50;;;13.50;47.40;;;;;;5074291;28;20136;-75
2021/04/10 01:55:01;;;;;;;4.72;1.60;;;13.50;47.40;;;;;;5072944;28;20044;-75
2021/04/10 01:57:30;;;;;;;5.97;1.50;;;13.50;47.40;;;;;;5083777;28;20573;-76
2021/04/10 01:59:59;;;;;;;4.30;1.50;;;13.50;48.30;;;;;;5081247;28;20523;-75
2021/04/10 02:02:27;;;;;;;4.47;1.48;;;13.50;47.60;;;;;;5091431;28;20048;-76
2021/04/10 02:04:54;;;;;;;4.80;1.55;;;13.40;47.70;;;;;;5093896;28;20075;-77
2021/04/10 02:07:24;;;;;;;6.03;1.65;;;13.50;47.60;;;;;;5082198;28;20044;-76
2021/04/10 02:09:52;;;;;;;4.22;1.60;;;13.50;47.90;;;;;;5086499;28;20072;-78
2021/04/10 02:12:21;;;;;;;3.45;1.50;;;13.50;47.90;;;;;;5090400;28;20079;-76
2021/04/10 02:14:49;;;;;;;6.00;1.38;;;13.40;47.80;;;;;;5093291;28;20090;-75
2021/04/10 02:17:18;;;;;;;4.60;1.48;;;13.50;47.80;;;;;;5081460;28;20083;-75
2021/04/10 02:19:46;;;;;;;4.45;1.50;;;13.40;47.70;;;;;;5087401;28;20049;-76
2021/04/10 02:22:14;;;;;;;4.20;1.35;;;13.50;47.70;;;;;;5089151;28;20083;-77
2021/04/10 02:24:42;;;;;;;5.07;1.60;;;13.40;47.70;;;;;;5078969;28;20044;-76
2021/04/10 02:27:09;;;;;;;5.13;1.60;;;13.50;47.70;;;;;;5079948;28;20506;-75
2021/04/10 02:29:36;;;;;;;3.65;1.38;;;13.50;47.50;;;;;;5088160;28;20083;-75
2021/04/10 02:32:08;;;;;;;3.33;1.27;;;13.50;47.60;;;;;;5076299;28;20076;-77
2021/04/10 02:34:43;;;;;;;3.75;1.30;;;13.50;47.40;;;;;;5092005;28;20458;-75
2021/04/10 02:37:11;;;;;;;3.63;1.52;;;13.50;47.40;;;;;;5075730;28;20075;-75
2021/04/10 02:39:40;;;;;;;3.60;1.20;;;13.50;47.40;;;;;;5084202;28;20553;-74
2021/04/10 02:42:10;;;;;;;3.42;1.38;;;13.50;47.30;;;;;;5083658;28;20497;-76
2021/04/10 02:44:41;;;;;;;3.90;1.30;;;13.50;47.40;;;;;;5092065;28;20040;-76
2021/04/10 02:47:09;;;;;;;3.08;1.30;;;13.40;47.30;;;;;;5079763;28;20110;-76
2021/04/10 02:49:40;;;;;;;4.35;1.38;;;13.40;47.30;;;;;;5088266;28;20088;-79
2021/04/10 02:52:08;;;;;;;6.15;1.58;;;13.40;47.50;;;;;;5088136;28;20560;-76
2021/04/10 02:54:43;;;;;;;3.35;1.10;;;13.50;47.50;;;;;;5079382;28;20076;-76
2021/04/10 02:57:13;;;;;;;3.53;1.25;;;13.40;47.60;;;;;;5094718;28;20082;-77
2021/04/10 02:59:42;;;;;;;3.83;1.33;;;13.40;47.50;;;;;;5087281;28;20139;-76
2021/04/10 03:02:11;;;;;;;4.50;1.27;;;13.40;47.50;;;;;;5083179;28;20236;-76
2021/04/10 03:04:40;;;;;;;3.38;1.30;;;13.40;47.60;;;;;;5089964;28;20079;-76
2021/04/10 03:07:09;;;;;;;3.50;1.20;;;13.40;47.50;;;;;;5077305;28;20127;-78
2021/04/10 03:09:38;;;;;;;3.83;1.60;;;13.30;48.40;;;;;;5091543;28;20075;-79
2021/04/10 03:12:06;;;;;;;3.35;1.40;;;13.40;47.50;;;;;;5081317;28;20060;-77
2021/04/10 03:14:35;;;;;;;4.05;1.25;;;13.40;47.50;;;;;;5072972;28;20090;-76
2021/04/10 03:17:03;;;;;;;2.90;1.00;;;13.30;47.70;;;;;;5076119;28;20634;-77
2021/04/10 03:19:31;;;;;;;6.30;1.50;;;13.30;47.70;;;;;;5085866;28;20124;-76
2021/04/10 03:21:58;;;;;;;3.28;1.30;;;13.30;47.70;;;;;;5073447;28;20127;-77
2021/04/10 03:24:25;;;;;;;3.45;1.10;;;13.30;47.70;;;;;;5074260;28;20174;-77
2021/04/10 03:26:53;;;;;;;5.90;1.50;;;13.20;47.80;;;;;;5076087;28;20110;-77
2021/04/10 03:29:20;;;;;;;4.63;1.23;;;13.30;47.70;;;;;;5087183;28;20498;-76
2021/04/10 03:31:48;;;;;;;3.53;1.10;;;13.30;47.60;;;;;;5073253;28;20136;-77
2021/04/10 03:34:15;;;;;;;3.83;1.20;;;13.20;47.90;;;;;;5086231;28;20131;-77
2021/04/10 03:36:42;;;;;;;5.00;1.40;;;13.20;47.80;;;;;;5075952;28;20079;-75
2021/04/10 03:39:09;;;;;;;3.38;1.13;;;13.20;47.80;;;;;;5077363;28;20051;-75
2021/04/10 03:41:36;;;;;;;3.55;1.10;;;13.30;48.40;;;;;;5085271;28;20079;-76
2021/04/10 03:44:04;;;;;;;4.15;1.20;;;13.20;48.10;;;;;;5083950;28;20083;-76
2021/04/10 03:46:31;;;;;;;4.35;1.13;;;13.20;48.10;;;;;;5076608;28;20570;-75
2021/04/10 03:48:57;;;;;;;3.95;1.10;;;13.20;48.20;;;;;;5089545;28;20114;-76
2021/04/10 03:51:24;;;;;;;4.47;1.23;;;13.30;48.40;;;;;;5087402;28;20090;-76
2021/04/10 03:53:50;;;;;;;3.92;1.20;;;13.20;48.40;;;;;;5083602;28;20174;-77
2021/04/10 03:56:17;;;;;;;4.80;1.27;;;13.20;48.70;;;;;;5078881;28;20517;-75
2021/04/10 03:58:44;;;;;;;3.97;1.25;;;13.20;48.80;;;;;;5083272;28;20144;-76
2021/04/10 04:01:11;;;;;;;5.60;1.25;;;13.20;49.00;;;;;;5085367;28;20132;-76
2021/04/10 04:03:38;;;;;;;4.80;1.15;;;13.10;48.90;;;;;;5089387;28;20087;-75
2021/04/10 04:06:05;;;;;;;3.80;1.33;;;13.10;49.00;;;;;;5077625;28;20131;-77
2021/04/10 04:08:31;;;;;;;4.05;1.33;;;13.10;49.00;;;;;;5087366;28;20056;-76
2021/04/10 04:10:58;;;;;;;5.18;1.30;;;13.10;49.00;;;;;;5074398;28;20566;-75
2021/04/10 04:13:26;;;;;;;4.18;1.00;;;13.10;49.30;;;;;;5075246;28;20128;-75
2021/04/10 04:15:52;;;;;;;4.28;1.20;;;13.10;49.20;;;;;;5074107;28;20087;-78
2021/04/10 04:18:20;;;;;;;3.60;1.08;;;13.10;49.30;;;;;;5082407;28;20508;-78
2021/04/10 04:20:46;;;;;;;6.20;0.98;;;13.10;49.20;;;;;;5090453;28;20409;-77
2021/04/10 04:23:13;;;;;;;3.60;1.10;;;13.10;49.20;;;;;;5078674;28;20058;-78
2021/04/10 04:25:39;;;;;;;5.35;1.35;;;13.00;49.60;;;;;;5085333;28;20048;-78
2021/04/10 04:28:06;;;;;;;3.20;1.20;;;13.00;49.10;;;;;;5081714;28;20524;-76
2021/04/10 04:30:33;;;;;;;3.22;1.13;;;13.00;49.20;;;;;;5090331;28;20579;-76
2021/04/10 04:33:00;;;;;;;2.60;1.05;;;13.00;49.60;;;;;;5077043;28;20040;-75
2021/04/10 04:35:27;;;;;;;3.53;1.13;;;13.00;49.30;;;;;;5087189;28;20079;-75
2021/04/10 04:37:54;;;;;;;2.53;0.90;;;12.90;49.10;;;;;;5075680;28;20080;-76
2021/04/10 04:40:20;;;;;;;4.10;1.08;;;12.90;49.10;;;;;;5088608;28;20401;-75
2021/04/10 04:42:47;;;;;;;2.50;1.00;;;12.80;49.20;;;;;;5078473;28;20087;-75
2021/04/10 04:45:14;;;;;;;4.70;1.40;;;12.80;49.20;;;;;;5088700;28;20501;-75
2021/04/10 04:47:41;;;;;;;4.70;1.48;;;12.90;49.10;;;;;;5081872;28;20090;-74
2021/04/10 04:50:10;;;;;;;3.20;1.10;;;12.90;49.00;;;;;;5093367;28;20126;-75
2021/04/10 04:52:37;;;;;;;6.72;1.10;;;12.80;49.20;;;;;;5077600;28;20076;-76
2021/04/10 04:55:05;;;;;;;5.43;1.30;;;12.90;49.40;;;;;;5084891;28;20048;-76
2021/04/10 04:57:32;;;;;;;3.70;1.13;;;12.90;49.40;;;;;;5078066;28;20136;-77
2021/04/10 04:59:58;;;;;;;3.35;1.02;;;12.80;50.00;;;;;;5076881;28;20526;-78
2021/04/10 05:02:25;;;;;;;4.40;1.00;;;12.80;50.50;;;;;;5071836;28;20040;-75
2021/04/10 05:04:52;;;;;;;4.65;1.45;;;12.60;51.30;;;;;;5076979;28;20075;-74
2021/04/10 05:07:18;;;;;;;3.10;1.10;;;12.70;52.80;;;;;;5078739;28;20143;-76
2021/04/10 05:09:46;;;;;;;3.55;1.10;;;12.60;54.30;;;;;;5072195;28;20143;-74
2021/04/10 05:12:13;;;;;;;3.97;1.10;;;12.60;55.10;;;;;;5072107;28;20071;-74
2021/04/10 05:14:39;;;;;;;4.32;1.20;;;12.50;55.80;;;;;;5072416;28;20505;-74
2021/04/10 05:17:06;;;;;;;4.25;1.10;;;12.40;56.40;;;;;;5072086;28;20106;-76
2021/04/10 05:19:33;;;;;;;3.80;1.60;;;12.30;56.50;;;;;;5076842;28;20516;-76
2021/04/10 05:21:59;;;;;;;3.58;1.10;;;12.20;56.50;;;;;;5072402;28;20076;-75
2021/04/10 05:24:26;;;;;;;6.03;1.83;;;12.30;57.20;;;;;;5076406;28;20076;-76
2021/04/10 05:26:53;;;;;;;4.13;1.45;;;12.30;57.80;;;;;;5071816;28;20135;-76
2021/04/10 05:29:20;;;;;;;4.00;1.10;;;12.20;59.20;;;;;;5072121;28;20075;-77
2021/04/10 05:31:47;;;;;;;3.95;1.33;;;12.10;61.50;;;;;;5071755;28;20045;-77
2021/04/10 05:34:13;;;;;;;4.05;1.27;;;12.10;62.90;;;;;;5071813;28;20498;-76
2021/04/10 05:36:40;;;;;;;3.20;1.08;;;12.00;63.50;;;;;;5072213;28;20402;-77
2021/04/10 05:39:07;;;;;;;2.95;1.10;;;11.90;65.70;;;;;;5071129;28;20087;-78
2021/04/10 05:41:33;;;;;;;4.30;1.13;;;11.80;66.70;;;;;;5072042;28;20509;-76
2021/04/10 05:44:01;;;;;;;3.58;1.30;;;11.80;68.50;;;;;;5081304;28;20138;-75
2021/04/10 05:46:27;;;;;;;4.28;1.33;;;11.70;70.10;;;;;;5077880;28;20068;-75
2021/04/10 05:48:54;;;;;;;3.85;1.30;;;11.60;71.20;;;;;;5080835;28;20139;-75
2021/04/10 05:51:20;;;;;;;4.38;1.10;;;11.80;73.00;;;;;;5077514;28;20089;-75
2021/04/10 05:53:48;;;;;;;4.40;1.40;;;11.80;74.50;;;;;;5072434;28;20501;-75
2021/04/10 05:56:15;;;;;;;3.88;1.30;;;11.70;74.40;;;;;;5073218;28;20052;-75
2021/04/10 05:58:41;;;;;;;4.88;1.30;;;11.60;74.90;;;;;;5082110;28;20106;-76
2021/04/10 06:01:09;;;;;;;5.40;1.40;;;11.60;75.10;;;;;;5071718;28;20518;-75
2021/04/10 06:03:35;;;;;;;4.90;1.35;;;11.60;75.10;;;;;;5071705;28;20082;-76
2021/04/10 06:06:02;;;;;;;4.25;1.10;;;11.60;75.40;;;;;;5071301;28;20434;-76
2021/04/10 06:08:29;;;;;;;3.08;1.08;;;11.60;75.50;;;;;;5080958;28;20127;-77
2021/04/10 06:10:56;;;;;;;3.78;1.40;;;11.60;76.10;;;;;;5073725;28;20136;-75
2021/04/10 06:13:22;;;;;;;3.95;1.20;;;11.50;77.10;;;;;;5077284;28;20079;-77
2021/04/10 06:15:49;;;;;;;3.92;1.27;;;11.60;77.20;;;;;;5081606;28;20130;-76
2021/04/10 06:18:17;;;;;;;3.50;1.30;;;11.70;77.20;;;;;;5076304;28;20498;-76
2021/04/10 06:20:43;;;;;;;3.75;1.10;;;11.70;77.60;;;;;;5071094;28;20127;-77
2021/04/10 06:23:10;;;;;;;4.20;1.30;;;11.70;77.50;;;;;;5071903;28;20102;-75
2021/04/10 06:25:36;;;;;;;4.35;1.48;;;11.70;78.40;;;;;;5071518;28;20135;-75
2021/04/10 06:28:04;;;;;;;3.25;1.20;;;11.70;78.60;;;;;;5074679;28;20515;-75
2021/04/10 06:30:31;;;;;;;2.97;1.17;;;11.70;78.90;;;;;;5084392;28;20146;-78
2021/04/10 06:32:58;;;;;;;4.22;1.23;;;11.60;80.10;;;;;;5082038;28;20079;-76
2021/04/10 06:35:25;;;;;;;4.00;1.35;;;11.60;80.50;;;;;;5084829;28;20045;-77
2021/04/10 06:37:52;;;;;;;3.58;1.10;;;11.60;81.30;;;;;;5077504;28;20453;-76
2021/04/10 06:40:20;;;;;;;2.92;1.40;;;11.60;82.00;;;;;;5077584;28;20086;-78
2021/04/10 06:42:46;;;;;;;3.85;1.30;;;11.60;82.30;;;;;;5072196;28;20072;-78
2021/04/10 06:45:13;;;;;;;2.92;1.23;;;11.60;82.60;;;;;;5086427;28;20074;-76
2021/04/10 06:47:40;;;;;;;4.70;1.52;;;11.70;82.70;;;;;;5090363;28;20520;-76
2021/04/10 06:50:09;;;;;;;3.85;1.10;;;11.60;83.10;;;;;;5082381;28;20075;-75
2021/04/10 06:52:41;;;;;;;3.40;1.20;;;11.60;82.70;;;;;;5082196;28;20128;-76
2021/04/10 06:55:10;;;;;;;4.35;1.30;;;11.60;83.40;;;;;;5093228;28;20075;-76
2021/04/10 06:57:48;;;;;;;2.70;1.08;;;11.60;83.80;;;;;;5088978;28;20493;-75
2021/04/10 07:00:16;;;;;;;4.63;1.40;;;11.60;83.80;;;;;;5089199;28;20076;-77
2021/04/10 07:02:45;;;;;;;3.72;1.42;;;11.60;84.00;;;;;;5077023;28;20155;-75
2021/04/10 07:05:13;;;;;;;3.22;1.30;;;11.60;84.50;;;;;;5084509;28;20056;-74
2021/04/10 07:07:43;;;;;;;4.35;1.30;;;11.70;83.80;;;;;;5078414;28;20296;-75
2021/04/10 07:10:12;;;;;;;3.97;1.40;;;11.70;84.10;;;;;;5078410;28;20067;-74
2021/04/10 07:12:39;;;;;;;3.97;1.20;;;11.70;84.10;;;;;;5086126;28;20055;-74
2021/04/10 07:15:08;;;;;;;3.45;1.27;;;11.70;84.30;;;;;;5076433;28;20072;-74
2021/04/10 07:17:35;;;;;;;4.88;1.50;;;11.60;85.20;;;;;;5089214;28;20117;-75
2021/04/10 07:20:22;;;;;;;3.03;1.40;;;11.60;85.00;;;;;;5077123;28;20529;-74
2021/04/10 07:23:04;;;;;;;4.18;1.40;;;11.60;85.60;;;;;;5084556;28;20048;-75
2021/04/10 07:25:34;;;;;;;4.05;1.30;;;11.60;86.10;;;;;;5077734;28;20131;-75
2021/04/10 07:28:24;;;;;;;4.80;1.30;;;11.50;86.30;;;;;;5085385;28;20051;-78
2021/04/10 07:31:00;;;;;;;4.72;1.30;;;11.50;86.30;;;;;;5077097;28;20132;-78
2021/04/10 07:33:31;;;;;;;3.80;1.08;;;11.50;87.20;;;;;;5086679;28;20045;-77
2021/04/10 07:36:00;;;;;;;5.07;1.25;;;11.60;86.90;;;;;;5084953;28;20502;-78
2021/04/10 07:38:33;;;;;;;5.53;1.70;;;11.60;87.00;;;;;;5078733;28;20494;-76
2021/04/10 07:41:03;;;;;;;4.35;1.48;;;11.50;87.60;;;;;;5082136;28;20134;-76
2021/04/10 07:43:36;;;;;;;4.43;1.58;;;11.50;87.80;;;;;;5073918;28;20098;-77
2021/04/10 07:46:28;;;;;;;3.78;1.45;;;11.50;87.60;;;;;;5073535;28;20502;-77
2021/04/10 07:49:04;;;;;;;3.42;1.25;;;11.60;87.90;;;;;;5083687;28;20083;-78
2021/04/10 07:51:34;;;;;;;3.42;1.30;;;11.60;88.10;;;;;;5078982;28;20082;-78
2021/04/10 07:54:21;;;;;;;5.47;1.67;;;11.60;88.50;;;;;;5086409;28;20107;-79
2021/04/10 07:56:59;;;;;;;3.78;1.58;;;11.60;90.00;;;;;;5083131;28;20086;-78
2021/04/10 07:59:27;;;;;;;3.35;1.25;;;11.70;89.80;;;;;;5079426;28;20479;-76
2021/04/10 08:01:54;;;;;;;3.10;1.10;;;11.70;88.80;;;;;;5089779;28;20048;-79
2021/04/10 08:04:22;;;;;;;4.65;1.50;;;11.80;88.30;;;;;;5087943;28;20087;-78
2021/04/10 08:06:57;;;;;;;5.05;1.50;;;11.80;87.40;;;;;;5087727;28;20052;-77
2021/04/10 08:09:33;;;;;;;3.88;1.55;;;11.90;87.50;;;;;;5091104;28;20079;-77
2021/04/10 08:12:01;;;;;;;4.13;1.20;;;11.80;87.50;;;;;;5076274;28;20111;-76
2021/04/10 08:14:41;;;;;;;3.63;1.42;;;11.80;88.80;;;;;;5079699;28;20065;-77
2021/04/10 08:17:08;;;;;;;4.28;1.52;;;11.70;89.40;;;;;;5090660;28;20493;-77
2021/04/10 08:19:35;;;;;;;5.15;1.55;;;11.80;87.70;;;;;;5077325;28;20083;-78
2021/04/10 08:22:04;;;;;;;4.35;1.33;;;11.90;88.00;;;;;;5084899;28;20066;-78
2021/04/10 08:24:39;;;;;;;3.45;1.25;;;11.80;88.80;;;;;;5091833;28;20139;-77
2021/04/10 08:27:08;;;;;;;5.03;1.60;;;11.70;90.30;;;;;;5080674;28;20083;-77
2021/04/10 08:29:37;;;;;;;3.55;1.38;;;11.80;89.10;;;;;;5087824;28;20044;-75
2021/04/10 08:32:05;;;;;;;3.53;1.27;;;11.80;89.10;;;;;;5074483;28;20105;-77
2021/04/10 08:34:32;;;;;;;3.97;1.42;;;11.80;89.70;;;;;;5089274;28;20552;-77
2021/04/10 08:37:01;;;;;;;3.80;1.80;;;11.80;89.30;;;;;;5077968;28;20063;-76
2021/04/10 08:39:33;;;;;;;3.90;1.67;;;11.90;88.80;;;;;;5078019;28;20059;-75
2021/04/10 08:42:02;;;;;;;7.05;1.80;;;11.80;88.90;;;;;;5075506;28;20083;-76
2021/04/10 08:44:32;;;;;;;5.50;1.58;;;11.90;89.40;;;;;;5080176;28;20083;-76
2021/04/10 08:47:00;;;;;;;4.07;1.60;;;12.00;89.80;;;;;;5092918;28;20463;-76
2021/04/10 08:49:33;;;;;;;4.65;2.03;;;11.90;90.20;;;;;;5079412;28;20051;-76
2021/04/10 08:52:05;;;;;;;3.30;1.38;;;12.00;89.70;;;;;;5089708;28;20056;-78
2021/04/10 08:54:37;;;;;;;6.45;1.75;;;12.10;88.80;;;;;;5082910;28;20075;-75
2021/04/10 08:57:11;;;;;;;4.50;1.50;;;12.20;88.80;;;;;;5087209;28;20055;-73
2021/04/10 08:59:43;;;;;;;4.43;1.90;;;12.20;89.40;;;;;;5075383;28;20052;-73
2021/04/10 09:02:19;;;;;;;5.40;2.28;;;12.40;89.30;;;;;;5081877;28;20397;-75
2021/04/10 09:04:59;;;;;;;3.83;1.73;;;12.40;88.80;;;;;;5083224;28;20183;-78
2021/04/10 09:08:05;;;;;;;4.57;1.60;;;12.60;88.40;;;;;;5067999;28;20565;-78
2021/04/10 09:10:51;;;;;;;5.25;1.65;;;12.70;87.50;;;;;;5069453;28;20049;-79
2021/04/10 09:13:41;;;;;;;3.67;1.60;;;12.90;87.20;;;;;;5073863;28;20084;-79
2021/04/10 09:16:38;;;;;;;6.68;1.70;;;13.00;85.60;;;;;;5075971;28;20067;-78
2021/04/10 09:19:19;;;;;;;4.57;1.80;;;13.10;84.40;;;;;;5078179;28;20093;-79
2021/04/10 09:21:51;;;;;;;3.72;1.50;;;13.10;83.80;;;;;;5087561;28;20054;-78
2021/04/10 09:24:28;;;;;;;4.47;1.67;;;13.10;82.90;;;;;;5084559;28;20094;-79
2021/04/10 09:27:06;;;;;;;4.18;1.55;;;13.10;82.70;;;;;;5077537;28;20052;-76
2021/04/10 09:29:53;;;;;;;7.10;3.42;;;13.10;82.60;;;;;;5083875;28;20159;-76
2021/04/10 09:32:39;;;;;;;7.32;3.22;;;13.10;83.50;;;;;;5068256;28;20079;-76
2021/04/10 09:35:10;;;;;;;19.30;8.85;;;13.00;82.30;;;;;;5068024;28;20044;-79
2021/04/10 09:38:01;;;;;;;6.18;2.35;;;13.00;83.30;;;;;;5071132;28;20460;-79
2021/04/10 09:40:50;;;;;;;5.07;1.40;;;13.00;83.20;;;;;;5074414;28;20494;-80
2021/04/10 09:43:21;;;;;;;3.88;1.65;;;13.00;84.40;;;;;;5073107;28;20052;-81
2021/04/10 09:45:50;;;;;;;4.82;1.65;;;13.00;84.20;;;;;;5086186;28;20044;-78
2021/04/10 09:48:35;;;;;;;5.38;1.77;;;13.10;83.00;;;;;;5074784;28;20103;-79
2021/04/10 09:51:17;;;;;;;4.40;1.45;;;13.20;82.20;;;;;;5084297;28;20056;-79
2021/04/10 09:53:49;;;;;;;3.60;1.70;;;13.10;83.40;;;;;;5068661;28;20102;-79
2021/04/10 09:56:17;;;;;;;4.45;1.90;;;13.30;82.40;;;;;;5080748;28;20553;-76
2021/04/10 09:58:52;;;;;;;3.58;1.63;;;13.30;82.20;;;;;;5071622;28;20052;-78
2021/04/10 10:01:22;;;;;;;3.85;1.60;;;13.30;83.00;;;;;;5082097;28;20083;-79
2021/04/10 10:03:50;;;;;;;6.32;1.60;;;13.40;82.40;;;;;;5084002;28;20139;-80
2021/04/10 10:06:28;;;;;;;3.85;1.70;;;13.50;82.10;;;;;;5070996;28;20054;-80
2021/04/10 10:08:54;;;;;;;3.10;1.45;;;13.50;81.50;;;;;;5075497;28;20048;-77
2021/04/10 10:11:22;;;;;;;4.18;1.50;;;13.70;82.20;;;;;;5072689;28;20052;-79
2021/04/10 10:13:50;;;;;;;3.33;1.45;;;13.80;81.40;;;;;;5078913;28;20079;-77
2021/04/10 10:16:29;;;;;;;4.82;1.98;;;13.80;80.20;;;;;;5084198;28;20089;-77
2021/04/10 10:18:56;;;;;;;5.97;1.50;;;13.90;78.40;;;;;;5078706;28;20814;-76
2021/04/10 10:21:25;;;;;;;4.53;1.75;;;13.80;80.40;;;;;;5064171;28;20053;-78
2021/04/10 10:23:54;;;;;;;3.97;1.80;;;13.90;80.00;;;;;;5067821;28;20044;-78
2021/04/10 10:26:23;;;;;;;4.28;1.90;;;13.90;79.40;;;;;;5090075;28;20131;-78
2021/04/10 10:28:54;;;;;;;4.70;1.60;;;13.90;79.40;;;;;;5063852;28;20131;-78
2021/04/10 10:31:23;;;;;;;4.28;1.52;;;13.80;80.50;;;;;;5084019;28;20677;-78
2021/04/10 10:33:51;;;;;;;6.68;1.88;;;13.80;80.50;;;;;;5074503;28;20045;-77
2021/04/10 10:36:21;;;;;;;3.88;1.80;;;13.90;79.80;;;;;;5074845;28;20090;-76
2021/04/10 10:38:50;;;;;;;4.03;1.50;;;13.90;79.70;;;;;;5080423;28;20048;-75
2021/04/10 10:41:18;;;;;;;3.80;1.70;;;13.90;78.10;;;;;;5090516;28;20090;-77
2021/04/10 10:43:46;;;;;;;4.80;1.92;;;13.90;79.00;;;;;;5086927;28;20583;-78
2021/04/10 10:46:20;;;;;;;4.95;2.30;;;13.80;80.00;;;;;;5070563;28;20457;-78
2021/04/10 10:48:47;;;;;;;4.83;2.30;;;13.80;80.00;;;;;;5087586;28;20504;-79
2021/04/10 10:51:16;;;;;;;5.05;1.92;;;13.80;78.70;;;;;;5073729;28;20048;-78
2021/04/10 10:53:45;;;;;;;2.95;1.40;;;13.90;78.70;;;;;;5079202;28;20053;-77
2021/04/10 10:56:20;;;;;;;4.05;1.70;;;13.80;79.00;;;;;;5072238;28;20079;-78
2021/04/10 10:58:49;;;;;;;4.75;1.58;;;13.90;78.90;;;;;;5079106;28;20073;-78
2021/04/10 11:01:26;;;;;;;3.92;1.60;;;13.90;79.20;;;;;;5077061;28;20087;-76
2021/04/10 11:03:58;;;;;;;3.03;1.40;;;14.00;78.70;;;;;;5073377;28;20136;-77
2021/04/10 11:06:28;;;;;;;4.82;1.48;;;14.00;78.00;;;;;;5084655;28;20053;-79
2021/04/10 11:08:55;;;;;;;3.70;1.60;;;14.10;78.10;;;;;;5088530;28;20130;-78
2021/04/10 11:11:25;;;;;;;4.38;1.58;;;14.10;77.70;;;;;;5076610;28;20135;-78
2021/04/10 11:13:52;;;;;;;3.55;1.55;;;14.20;77.20;;;;;;5079277;28;20076;-77
2021/04/10 11:16:19;;;;;;;3.80;1.75;;;14.20;77.50;;;;;;5078793;28;20161;-77
2021/04/10 11:18:55;;;;;;;3.75;1.60;;;14.30;76.20;;;;;;5070212;28;20113;-77
2021/04/10 11:21:29;;;;;;;8.32;4.13;;;14.40;76.20;;;;;;5081920;28;20048;-77
2021/04/10 11:24:03;;;;;;;10.50;4.85;;;14.40;76.00;;;;;;5070169;28;20123;-77
2021/04/10 11:26:40;;;;;;;7.22;3.38;;;14.50;75.80;;;;;;5083290;28;20083;-77
2021/04/10 11:29:26;;;;;;;4.20;1.73;;;14.60;74.90;;;;;;5090394;28;20130;-77
2021/04/10 11:32:14;;;;;;;3.63;1.40;;;14.70;73.90;;;;;;5076768;28;20072;-76
2021/04/10 11:34:53;;;;;;;3.50;1.60;;;14.80;74.10;;;;;;5070139;28;20131;-77
2021/04/10 11:37:22;;;;;;;3.38;1.40;;;14.90;73.40;;;;;;5068834;28;20044;-77
2021/04/10 11:39:52;;;;;;;3.38;1.55;;;15.00;71.80;;;;;;5071627;28;20060;-78
2021/04/10 11:42:28;;;;;;;3.53;1.20;;;15.10;71.50;;;;;;5036763;28;20088;-77
2021/04/10 11:44:57;;;;;;;3.63;1.50;;;15.20;71.20;;;;;;5084594;28;20094;-77
2021/04/10 11:47:27;;;;;;;3.47;1.30;;;15.40;70.50;;;;;;5089488;28;20159;-78
2021/04/10 11:50:07;;;;;;;4.13;1.40;;;15.50;69.40;;;;;;5085148;28;20051;-78
2021/04/10 11:52:34;;;;;;;3.42;1.20;;;15.70;69.00;;;;;;5035922;28;21024;-77
2021/04/10 11:55:05;;;;;;;3.92;1.50;;;15.90;68.00;;;;;;5070149;28;20090;-77
2021/04/10 11:57:35;;;;;;;3.58;1.70;;;16.10;65.60;;;;;;5052428;28;20129;-77
2021/04/10 12:00:14;;;;;;;4.93;1.95;;;16.20;66.30;;;;;;5072409;28;20049;-76
2021/04/10 12:02:43;;;;;;;4.45;1.38;;;16.20;66.70;;;;;;5074040;28;20161;-79
2021/04/10 12:05:24;;;;;;;3.40;1.38;;;16.50;66.10;;;;;;5069591;28;20060;-78
2021/04/10 12:08:26;;;;;;;3.60;1.40;;;16.60;64.50;;;;;;5069675;28;20049;-78
2021/04/10 12:10:55;;;;;;;5.25;1.65;;;16.60;63.10;;;;;;5088849;28;20036;-78
2021/04/10 12:13:24;;;;;;;3.88;1.55;;;16.70;61.90;;;;;;5089385;28;20131;-80
2021/04/10 12:15:53;;;;;;;3.22;1.42;;;16.80;61.90;;;;;;5089468;28;20052;-79
2021/04/10 12:18:25;;;;;;;3.58;1.30;;;16.90;62.00;;;;;;5088040;28;20054;-77
2021/04/10 12:20:54;;;;;;;3.90;1.13;;;17.00;63.50;;;;;;5054335;28;20053;-77
2021/04/10 12:23:22;;;;;;;2.75;1.17;;;17.30;63.60;;;;;;5069476;28;20063;-78
2021/04/10 12:25:50;;;;;;;3.88;1.48;;;17.40;61.80;;;;;;5068358;28;20091;-78
2021/04/10 12:28:18;;;;;;;3.85;1.60;;;17.40;62.20;;;;;;5077175;28;20308;-77
2021/04/10 12:30:45;;;;;;;4.85;1.92;;;17.60;61.00;;;;;;5089426;28;20484;-78
2021/04/10 12:33:13;;;;;;;3.50;1.60;;;17.80;59.90;;;;;;5089116;28;20479;-78
2021/04/10 12:35:40;;;;;;;3.42;1.50;;;17.80;58.10;;;;;;5063891;28;20048;-79
2021/04/10 12:38:08;;;;;;;5.03;1.52;;;18.00;58.20;;;;;;5077149;28;20134;-78
2021/04/10 12:40:35;;;;;;;3.90;1.50;;;18.10;57.90;;;;;;5050781;28;20482;-77
2021/04/10 12:43:01;;;;;;;4.05;1.45;;;18.30;57.30;;;;;;5082764;28;20136;-78
2021/04/10 12:45:29;;;;;;;3.47;1.45;;;18.40;56.50;;;;;;5066886;28;20040;-77
2021/04/10 12:47:56;;;;;;;4.13;1.60;;;18.40;56.30;;;;;;5076568;28;20477;-76
2021/04/10 12:50:26;;;;;;;3.92;1.40;;;18.60;55.10;;;;;;5089067;28;20094;-77
2021/04/10 12:52:53;;;;;;;3.33;1.50;;;18.70;55.40;;;;;;5071386;28;20094;-76
2021/04/10 12:55:25;;;;;;;3.17;0.98;;;18.90;53.60;;;;;;5068558;28;20048;-76
2021/04/10 12:57:53;;;;;;;2.95;1.20;;;18.90;53.40;;;;;;5068721;28;20135;-78
2021/04/10 13:00:20;;;;;;;4.00;1.58;;;19.10;53.60;;;;;;5070091;28;20114;-78
2021/04/10 13:02:47;;;;;;;4.60;1.30;;;19.30;52.10;;;;;;5069614;28;20048;-78
2021/04/10 13:05:15;;;;;;;3.53;1.30;;;19.40;51.50;;;;;;5067766;28;20491;-78